.
WxDataArchive / Data Records for 2008-12-14
2008-12-13 December 2008 2008-12-15

Data Records for Sunday, 14 December 2008

Time	Temp	Chill	HIndex	Humid	Dewpt	 Wind 	HiWind	WindDir	Rain 	Barom 
-----	----	-----	------	-----	-----	------	------	-------	-----	----- 
00:00	38.0	38.0	38.0	54	22.9	3	6	90	0.00	29.959 
00:05	38.0	38.0	38.0	54	22.9	2	11	68	0.00	29.959 
00:10	38.0	38.0	38.0	54	22.9	1	4	45	0.00	29.959 
00:15	38.0	38.0	38.0	54	22.9	2	4	90	0.00	29.955 
00:20	38.0	38.0	38.0	53	22.4	2	7	90	0.00	29.955 
00:25	38.2	38.2	38.2	53	22.6	3	14	90	0.00	29.955 
00:30	38.2	38.2	38.2	53	22.6	2	7	90	0.00	29.946 
00:35	38.2	38.2	38.2	52	22.1	2	10	90	0.00	29.946 
00:40	38.3	38.3	38.3	51	21.8	3	7	112	0.00	29.946 
00:45	38.6	38.6	38.6	50	21.6	2	9	68	0.00	29.953 
00:50	38.6	38.6	38.6	51	22.1	2	7	248	0.00	29.953 
00:55	38.8	38.8	38.8	50	21.8	2	7	292	0.00	29.953 
01:00	38.8	38.8	38.8	50	21.8	2	9	270	0.00	29.951 
01:05	38.9	38.9	38.9	50	21.9	3	8	270	0.00	29.951 
01:10	38.9	38.9	38.9	50	21.9	2	10	292	0.00	29.951 
01:15	38.9	38.9	38.9	50	21.9	2	7	270	0.00	29.952 
01:20	38.8	38.8	38.8	50	21.8	2	6	315	0.00	29.952 
01:25	38.9	38.9	38.9	50	21.9	3	10	248	0.00	29.952 
01:30	38.9	38.9	38.9	51	22.3	3	13	270	0.00	29.955 
01:35	38.8	38.8	38.8	51	22.2	2	7	248	0.00	29.955 
01:40	38.8	38.8	38.8	51	22.2	1	3	270	0.00	29.955 
01:45	38.6	38.6	38.6	52	22.5	1	4	270	0.00	29.957 
01:50	38.6	38.6	38.6	51	22.1	2	6	248	0.00	29.957 
01:55	38.6	38.6	38.6	51	22.1	1	5	248	0.00	29.957 
02:00	38.6	38.6	38.6	51	22.1	1	6	270	0.00	29.958 
02:05	38.6	38.6	38.6	52	22.5	1	5	248	0.00	29.958 
02:10	38.6	38.6	38.6	53	23.0	1	4	68	0.00	29.958 
02:15	38.5	38.5	38.5	53	22.9	1	3	112	0.00	29.952 
02:20	38.3	38.3	38.3	54	23.1	2	7	68	0.00	29.952 
02:25	38.3	38.3	38.3	53	22.7	2	9	270	0.00	29.952 
02:30	38.3	38.3	38.3	54	23.1	1	4	22	0.00	29.962 
02:35	38.2	38.2	38.2	56	23.9	2	5	90	0.00	29.962 
02:40	38.0	38.0	38.0	55	23.3	2	7	90	0.00	29.962 
02:45	37.9	37.9	37.9	56	23.6	2	7	270	0.00	29.954 
02:50	37.9	37.9	37.9	56	23.6	1	4	248	0.00	29.954 
02:55	38.0	38.0	38.0	56	23.7	2	6	90	0.00	29.954 
03:00	38.0	38.0	38.0	56	23.7	1	3	0	0.00	29.955 
03:05	38.0	38.0	38.0	57	24.1	1	4	0	0.00	29.955 
03:10	37.9	37.9	37.9	58	24.5	1	9	90	0.00	29.955 
03:15	37.6	37.6	37.6	61	25.4	1	4	270	0.00	29.949 
03:20	37.3	37.3	37.3	62	25.5	0	3	292	0.00	29.949 
03:25	37.2	37.2	37.2	62	25.4	2	7	90	0.00	29.949 
03:30	37.0	37.0	37.0	64	26.0	1	4	90	0.01	29.950 
03:35	37.0	37.0	37.0	65	26.3	1	4	0	0.00	29.950 
03:40	36.9	36.9	36.9	65	26.3	2	4	90	0.00	29.950 
03:45	36.9	36.9	36.9	65	26.3	1	4	112	0.00	29.941 
03:50	36.9	36.9	36.9	65	26.3	1	3	45	0.00	29.941 
03:55	37.0	37.0	37.0	65	26.3	1	3	45	0.00	29.941 
04:00	37.0	37.0	37.0	64	26.0	1	5	45	0.00	29.937 
04:05	37.2	37.2	37.2	63	25.8	1	4	112	0.01	29.937 
04:10	37.5	37.5	37.5	62	25.7	2	6	90	0.00	29.937 
04:15	37.8	37.8	37.8	61	25.6	1	5	90	0.00	29.932 
04:20	37.9	37.9	37.9	60	25.3	1	6	90	0.00	29.932 
04:25	38.0	38.0	38.0	59	25.0	2	5	90	0.00	29.932 
04:30	38.2	38.2	38.2	59	25.2	1	4	90	0.00	29.920 
04:35	38.2	38.2	38.2	59	25.2	2	8	90	0.00	29.920 
04:40	38.3	38.3	38.3	58	24.8	2	7	112	0.00	29.920 
04:45	38.5	38.5	38.5	58	25.0	2	9	112	0.00	29.914 
04:50	38.6	38.6	38.6	58	25.1	3	10	68	0.00	29.914 
04:55	38.8	38.8	38.8	58	25.3	2	6	90	0.00	29.914 
05:00	38.9	38.9	38.9	58	25.4	2	7	292	0.00	29.915 
05:05	38.9	38.9	38.9	59	25.8	1	4	292	0.00	29.915 
05:10	39.1	39.1	39.1	58	25.6	1	3	270	0.00	29.915 
05:15	39.1	39.1	39.1	59	26.0	2	10	292	0.00	29.916 
05:20	39.1	39.1	39.1	60	26.4	1	6	248	0.00	29.916 
05:25	39.1	39.1	39.1	59	26.0	2	9	248	0.00	29.916 
05:30	39.2	39.2	39.2	59	26.1	1	3	270	0.00	29.909 
05:35	39.3	39.3	39.3	59	26.2	2	8	248	0.00	29.909 
05:40	39.5	39.5	39.5	58	26.0	2	6	270	0.00	29.909 
05:45	39.6	39.6	39.6	58	26.1	2	11	248	0.00	29.906 
05:50	39.8	39.8	39.8	58	26.2	2	10	248	0.00	29.906 
05:55	39.9	39.9	39.9	58	26.3	3	9	270	0.00	29.906 
06:00	39.9	39.9	39.9	58	26.3	3	11	248	0.00	29.915 
06:05	40.1	40.1	40.1	58	26.5	3	13	248	0.00	29.915 
06:10	40.1	40.1	40.1	58	26.5	3	9	248	0.00	29.915 
06:15	40.1	40.1	40.1	58	26.5	3	9	248	0.00	29.918 
06:20	40.1	40.1	40.1	59	26.9	2	7	248	0.00	29.918 
06:25	40.1	40.1	40.1	59	26.9	2	9	248	0.00	29.918 
06:30	40.1	40.1	40.1	59	26.9	3	12	270	0.00	29.918 
06:35	40.1	40.1	40.1	61	27.7	3	10	248	0.00	29.918 
06:40	39.9	39.9	39.9	62	28.0	3	7	248	0.00	29.918 
06:45	39.6	36.9	39.6	64	28.4	4	14	248	0.00	29.916 
06:50	39.3	39.3	39.3	66	28.9	3	7	248	0.00	29.916 
06:55	38.9	38.9	38.9	69	29.6	2	7	270	0.00	29.916 
07:00	38.6	38.6	38.6	70	29.7	2	5	270	0.00	29.922 
07:05	38.3	38.3	38.3	71	29.7	2	7	248	0.00	29.922 
07:10	38.2	38.2	38.2	72	30.0	1	7	270	0.00	29.922 
07:15	38.3	38.3	38.3	71	29.7	2	6	270	0.00	29.929 
07:20	38.3	38.3	38.3	71	29.7	2	4	292	0.00	29.929 
07:25	38.5	38.5	38.5	71	29.9	2	7	248	0.00	29.929 
07:30	38.6	38.6	38.6	71	30.0	2	9	112	0.00	29.919 
07:35	38.9	38.9	38.9	71	30.3	3	10	292	0.00	29.919 
07:40	38.9	38.9	38.9	73	31.0	2	10	22	0.00	29.919 
07:45	38.8	35.9	38.8	75	31.6	4	11	248	0.00	29.921 
07:50	38.5	38.5	38.5	76	31.6	2	6	248	0.00	29.921 
07:55	38.5	38.5	38.5	76	31.6	2	6	270	0.00	29.921 
08:00	38.3	38.3	38.3	77	31.7	2	9	270	0.00	29.927 
08:05	38.3	38.3	38.3	77	31.7	2	6	248	0.00	29.927 
08:10	38.3	38.3	38.3	78	32.1	3	9	270	0.00	29.927 
08:15	38.3	38.3	38.3	79	32.4	2	9	248	0.00	29.934 
08:20	38.2	38.2	38.2	81	32.9	2	7	45	0.00	29.934 
08:25	38.0	38.0	38.0	81	32.7	2	7	225	0.00	29.934 
08:30	38.2	38.2	38.2	81	32.9	2	12	68	0.01	29.935 
08:35	38.2	38.2	38.2	82	33.2	1	4	248	0.00	29.935 
08:40	38.0	38.0	38.0	83	33.3	2	9	270	0.00	29.935 
08:45	38.0	38.0	38.0	83	33.3	2	8	270	0.01	29.936 
08:50	37.9	37.9	37.9	84	33.5	1	5	315	0.01	29.936 
08:55	37.8	37.8	37.8	85	33.7	1	7	68	0.00	29.936 
09:00	37.8	37.8	37.8	86	34.0	1	5	248	0.00	29.936 
09:05	37.8	37.8	37.8	86	34.0	2	6	68	0.00	29.936 
09:10	37.8	37.8	37.8	86	34.0	2	10	45	0.00	29.936 
09:15	37.9	37.9	37.9	85	33.8	1	7	90	0.00	29.934 
09:20	38.0	38.0	38.0	85	33.9	1	4	248	0.00	29.934 
09:25	38.2	38.2	38.2	85	34.1	1	5	248	0.00	29.934 
09:30	38.5	38.5	38.5	85	34.4	2	4	248	0.00	29.939 
09:35	38.8	38.8	38.8	84	34.4	2	8	68	0.00	29.939 
09:40	38.9	38.9	38.9	84	34.5	2	10	315	0.00	29.939 
09:45	39.2	39.2	39.2	84	34.8	3	7	292	0.00	29.939 
09:50	39.3	39.3	39.3	83	34.6	2	11	68	0.00	29.939 
09:55	39.5	39.5	39.5	83	34.8	3	8	248	0.00	29.939 
10:00	39.8	39.8	39.8	82	34.8	2	12	248	0.00	29.938 
10:05	39.9	39.9	39.9	81	34.6	3	12	248	0.00	29.938 
10:10	40.1	40.1	40.1	81	34.7	3	10	270	0.00	29.938 
10:15	40.1	40.1	40.1	80	34.4	2	7	225	0.00	29.942 
10:20	40.2	40.2	40.2	79	34.2	3	12	248	0.00	29.942 
10:25	40.3	37.7	40.3	78	34.0	4	13	270	0.00	29.942 
10:30	40.3	37.7	40.3	77	33.7	4	11	248	0.00	29.946 
10:35	40.3	40.3	40.3	76	33.3	3	9	270	0.00	29.946 
10:40	40.5	40.5	40.5	75	33.2	2	12	248	0.00	29.946 
10:45	40.5	40.5	40.5	74	32.9	3	11	270	0.00	29.948 
10:50	40.5	40.5	40.5	74	32.9	2	7	248	0.00	29.948 
10:55	40.5	40.5	40.5	73	32.5	3	10	90	0.00	29.948 
11:00	40.5	40.5	40.5	73	32.5	2	10	248	0.00	29.946 
11:05	40.5	40.5	40.5	74	32.9	3	9	248	0.00	29.946 
11:10	40.5	40.5	40.5	74	32.9	3	7	225	0.00	29.946 
11:15	40.6	40.6	40.6	73	32.6	2	6	90	0.00	29.945 
11:20	40.6	40.6	40.6	73	32.6	3	7	292	0.00	29.945 
11:25	40.6	40.6	40.6	73	32.6	2	7	270	0.00	29.945 
11:30	40.6	40.6	40.6	73	32.6	3	5	248	0.00	29.933 
11:35	40.8	40.8	40.8	73	32.8	3	13	45	0.00	29.933 
11:40	40.9	40.9	40.9	72	32.6	3	12	270	0.00	29.933 
11:45	41.1	41.1	41.1	72	32.8	2	7	270	0.00	29.929 
11:50	41.2	41.2	41.2	72	32.9	3	11	248	0.00	29.929 
11:55	41.3	41.3	41.3	71	32.6	3	10	248	0.00	29.929 
12:00	41.5	41.5	41.5	72	33.2	3	12	248	0.00	29.918 
12:05	41.5	41.5	41.5	73	33.5	3	11	315	0.00	29.918 
12:10	41.6	41.6	41.6	73	33.6	2	9	248	0.00	29.918 
12:15	41.6	41.6	41.6	73	33.6	2	10	248	0.00	29.913 
12:20	41.6	39.2	41.6	73	33.6	4	13	248	0.00	29.913 
12:25	41.8	41.8	41.8	73	33.8	3	10	270	0.00	29.913 
12:30	41.8	39.4	41.8	73	33.8	4	14	270	0.00	29.901 
12:35	41.8	39.4	41.8	73	33.8	4	10	270	0.00	29.901 
12:40	41.8	41.8	41.8	73	33.8	3	12	270	0.00	29.901 
12:45	41.9	41.9	41.9	72	33.5	3	9	270	0.00	29.899 
12:50	41.9	41.9	41.9	72	33.5	3	10	248	0.00	29.899 
12:55	42.1	42.1	42.1	71	33.4	3	11	248	0.00	29.899 
13:00	42.2	42.2	42.2	71	33.5	3	11	248	0.00	29.891 
13:05	42.3	42.3	42.3	71	33.6	2	6	248	0.00	29.891 
13:10	42.6	42.6	42.6	71	33.9	2	4	270	0.00	29.891 
13:15	42.8	42.8	42.8	71	34.1	3	10	248	0.00	29.882 
13:20	43.1	43.1	43.1	71	34.3	3	11	292	0.00	29.882 
13:25	43.3	41.1	43.3	69	33.8	4	12	248	0.00	29.882 
13:30	43.5	43.5	43.5	69	34.0	3	11	248	0.00	29.880 
13:35	43.6	43.6	43.6	69	34.1	3	10	270	0.00	29.880 
13:40	43.8	41.7	43.8	68	33.9	4	15	248	0.00	29.880 
13:45	43.9	41.8	43.9	68	34.0	4	14	270	0.00	29.877 
13:50	44.1	44.1	44.1	67	33.9	3	14	225	0.00	29.877 
13:55	44.1	44.1	44.1	67	33.9	3	11	270	0.00	29.877 
14:00	44.1	44.1	44.1	67	33.9	3	10	270	0.00	29.879 
14:05	44.1	44.1	44.1	67	33.9	3	13	248	0.00	29.879 
14:10	44.1	42.1	44.1	67	33.9	4	14	248	0.00	29.879 
14:15	44.1	44.1	44.1	67	33.9	3	9	315	0.00	29.868 
14:20	44.1	44.1	44.1	68	34.2	3	13	292	0.00	29.868 
14:25	44.1	44.1	44.1	68	34.2	3	10	270	0.00	29.868 
14:30	44.2	42.2	44.2	68	34.3	4	11	248	0.00	29.869 
14:35	44.2	44.2	44.2	69	34.7	3	12	270	0.00	29.869 
14:40	44.3	42.3	44.3	69	34.8	4	15	315	0.00	29.869 
14:45	44.5	42.5	44.5	69	35.0	4	12	248	0.00	29.867 
14:50	44.3	42.3	44.3	69	34.8	4	11	270	0.00	29.867 
14:55	44.3	44.3	44.3	69	34.8	3	8	248	0.00	29.867 
15:00	44.3	42.3	44.3	69	34.8	4	12	248	0.00	29.863 
15:05	44.5	44.5	44.5	69	35.0	3	9	248	0.00	29.863 
15:10	44.6	42.6	44.6	69	35.1	4	12	270	0.00	29.863 
15:15	44.9	43.0	44.9	69	35.4	4	12	248	0.00	29.861 
15:20	45.1	45.1	45.1	69	35.5	3	11	270	0.00	29.861 
15:25	45.1	43.2	45.1	69	35.5	4	11	248	0.00	29.861 
15:30	45.2	45.2	45.2	69	35.6	2	10	270	0.00	29.862 
15:35	45.5	45.5	45.5	69	35.9	3	10	270	0.00	29.862 
15:40	45.5	45.5	45.5	69	35.9	3	13	270	0.00	29.862 
15:45	45.7	45.7	45.7	69	36.1	3	9	248	0.00	29.855 
15:50	45.8	45.8	45.8	69	36.2	3	11	270	0.00	29.855 
15:55	46.0	46.0	46.0	69	36.4	3	6	248	0.00	29.855 
16:00	46.1	46.1	46.1	69	36.5	3	12	270	0.00	29.859 
16:05	46.1	46.1	46.1	69	36.5	3	11	248	0.00	29.859 
16:10	46.2	46.2	46.2	69	36.6	3	7	248	0.00	29.859 
16:15	46.2	46.2	46.2	70	37.0	3	13	270	0.00	29.860 
16:20	46.4	46.4	46.4	70	37.2	3	10	248	0.00	29.860 
16:25	46.5	46.5	46.5	70	37.3	3	8	248	0.00	29.860 
16:30	46.5	46.5	46.5	70	37.3	2	6	248	0.00	29.860 
16:35	46.7	46.7	46.7	70	37.4	3	7	248	0.00	29.860 
16:40	46.8	46.8	46.8	70	37.5	3	7	248	0.00	29.860 
16:45	47.0	47.0	47.0	70	37.7	3	11	248	0.00	29.863 
16:50	47.1	47.1	47.1	70	37.8	3	11	248	0.00	29.863 
16:55	47.3	47.3	47.3	70	38.0	3	10	248	0.00	29.863 
17:00	47.3	47.3	47.3	70	38.0	3	9	248	0.00	29.864 
17:05	47.4	47.4	47.4	70	38.1	2	5	270	0.00	29.864 
17:10	47.4	47.4	47.4	71	38.5	2	7	248	0.00	29.864 
17:15	47.6	47.6	47.6	71	38.7	2	6	270	0.00	29.861 
17:20	47.7	47.7	47.7	71	38.8	3	10	292	0.00	29.861 
17:25	47.7	47.7	47.7	71	38.8	2	5	270	0.00	29.861 
17:30	47.9	47.9	47.9	72	39.3	2	5	90	0.00	29.851 
17:35	48.0	48.0	48.0	72	39.4	3	14	270	0.00	29.851 
17:40	48.2	48.2	48.2	72	39.6	2	9	68	0.00	29.851 
17:45	48.2	48.2	48.2	72	39.6	2	7	270	0.00	29.848 
17:50	48.3	48.3	48.3	72	39.7	3	9	68	0.00	29.848 
17:55	48.5	48.5	48.5	72	39.9	3	9	292	0.00	29.848 
18:00	48.6	48.6	48.6	73	40.3	3	13	90	0.00	29.837 
18:05	48.9	48.9	48.9	73	40.6	3	12	248	0.00	29.837 
18:10	49.1	49.1	49.1	73	40.8	3	13	225	0.00	29.837 
18:15	49.2	49.2	49.2	73	40.9	2	7	270	0.00	29.827 
18:20	49.4	49.4	49.4	73	41.1	3	11	45	0.00	29.827 
18:25	49.5	49.5	49.5	73	41.2	3	7	68	0.00	29.827 
18:30	49.6	49.6	49.6	74	41.7	3	12	22	0.00	29.826 
18:35	49.9	48.8	49.9	74	41.9	4	8	68	0.00	29.826 
18:40	50.1	50.1	50.1	74	42.1	4	12	90	0.00	29.826 
18:45	50.2	50.2	50.2	74	42.2	4	16	45	0.00	29.817 
18:50	50.4	50.4	50.4	74	42.4	3	11	292	0.00	29.817 
18:55	50.5	50.5	50.5	74	42.5	4	11	270	0.00	29.817 
19:00	50.7	50.7	50.7	74	42.7	3	11	270	0.00	29.814 
19:05	50.8	50.8	50.8	74	42.8	3	7	292	0.00	29.814 
19:10	50.8	50.8	50.8	74	42.8	4	12	270	0.00	29.814 
19:15	51.0	51.0	51.0	73	42.7	4	14	270	0.00	29.812 
19:20	51.0	51.0	51.0	73	42.7	4	11	90	0.00	29.812 
19:25	51.0	51.0	51.0	73	42.7	3	9	292	0.00	29.812 
19:30	51.0	51.0	51.0	73	42.7	4	19	90	0.00	29.805 
19:35	51.1	51.1	51.1	73	42.7	4	11	315	0.00	29.805 
19:40	51.3	51.3	51.3	73	42.9	3	13	270	0.00	29.805 
19:45	51.4	51.4	51.4	73	43.0	5	10	248	0.00	29.806 
19:50	51.6	51.6	51.6	73	43.2	4	15	270	0.00	29.806 
19:55	51.6	51.6	51.6	73	43.2	3	12	225	0.00	29.806 
20:00	51.7	51.7	51.7	73	43.3	3	12	248	0.00	29.794 
20:05	51.9	51.9	51.9	72	43.2	4	10	248	0.00	29.794 
20:10	52.0	52.0	52.0	72	43.3	3	11	270	0.00	29.794 
20:15	52.2	52.2	52.2	72	43.4	4	12	292	0.00	29.790 
20:20	52.3	52.3	52.3	71	43.2	3	7	22	0.00	29.790 
20:25	52.5	52.5	52.5	71	43.4	4	13	270	0.00	29.790 
20:30	52.5	52.5	52.5	71	43.4	3	9	270	0.00	29.791 
20:35	52.6	52.6	52.6	71	43.5	3	14	225	0.00	29.791 
20:40	52.6	52.6	52.6	71	43.5	3	7	68	0.00	29.791 
20:45	52.8	52.8	52.8	70	43.3	3	12	248	0.00	29.783 
20:50	53.1	53.1	53.1	70	43.6	4	13	68	0.00	29.783 
20:55	53.2	53.2	53.2	69	43.3	4	13	292	0.00	29.783 
21:00	53.3	53.3	53.3	69	43.4	4	11	270	0.00	29.779 
21:05	53.5	53.5	53.5	69	43.6	4	10	270	0.00	29.779 
21:10	53.6	53.6	53.6	69	43.7	4	10	292	0.00	29.779 
21:15	53.8	53.8	53.8	69	43.9	4	11	90	0.00	29.771 
21:20	54.1	54.1	54.1	68	43.8	4	11	225	0.00	29.771 
21:25	54.1	54.1	54.1	68	43.8	5	13	270	0.00	29.771 
21:30	54.4	54.4	54.4	68	44.1	4	13	270	0.00	29.776 
21:35	54.2	54.2	54.2	68	43.9	2	7	315	0.00	29.776 
21:40	54.2	54.2	54.2	68	43.9	3	10	315	0.00	29.776 
21:45	54.4	54.4	54.4	68	44.1	4	11	292	0.00	29.772 
21:50	54.5	54.5	54.5	67	43.8	5	12	225	0.00	29.772 
21:55	54.5	54.5	54.5	67	43.8	4	14	248	0.00	29.772 
22:00	54.7	54.7	54.7	67	44.0	4	13	248	0.00	29.775 
22:05	54.7	54.7	54.7	67	44.0	4	12	248	0.00	29.775 
22:10	54.7	54.7	54.7	67	44.0	3	10	270	0.00	29.775 
22:15	54.7	54.7	54.7	67	44.0	4	13	270	0.00	29.771 
22:20	54.7	54.7	54.7	67	44.0	4	10	248	0.00	29.771 
22:25	54.7	54.7	54.7	67	44.0	5	14	270	0.00	29.771 
22:30	54.7	54.7	54.7	67	44.0	4	20	248	0.00	29.775 
22:35	54.8	54.8	54.8	67	44.1	4	14	248	0.00	29.775 
22:40	54.5	54.5	54.5	71	45.3	4	12	248	0.00	29.775 
22:45	54.1	54.1	54.1	73	45.6	4	11	270	0.00	29.788 
22:50	53.5	53.5	53.5	75	45.8	4	11	248	0.01	29.788 
22:55	53.2	53.2	53.2	76	45.8	5	13	248	0.00	29.788 
23:00	53.1	53.1	53.1	77	46.1	3	11	270	0.00	29.777 
23:05	52.9	52.9	52.9	78	46.2	5	14	270	0.00	29.777 
23:10	52.8	52.8	52.8	79	46.5	4	10	248	0.01	29.777 
23:15	52.5	52.5	52.5	80	46.5	3	11	270	0.00	29.782 
23:20	52.3	52.3	52.3	80	46.3	3	11	225	0.00	29.782 
23:25	52.2	52.2	52.2	81	46.5	3	7	248	0.00	29.782 
23:30	52.0	52.0	52.0	82	46.7	3	12	248	0.00	29.779 
23:35	51.9	51.9	51.9	82	46.6	2	10	270	0.00	29.779 
23:40	51.9	51.9	51.9	81	46.3	2	10	248	0.00	29.779 
23:45	52.0	52.0	52.0	80	46.0	2	7	248	0.00	29.774 
23:50	52.3	52.3	52.3	79	46.0	3	11	270	0.00	29.774 
23:55	52.5	52.5	52.5	79	46.2	4	12	248	0.00	29.774 

CoCoRaHS
IN-AL-39
A2 Web Hosting
Creative Commons License
GoDaddy
search engine by freefind advanced

loaded 2018-11-15 14:24:27 • last modified 2010-11-18 10:43:29
Privacy PolicyDisclaimer
• wx.awcolley.com is powered by PmWiki v.2002016 •
• all content (unless otherwise noted) © 2018 A W Colley